createdAt,value
2018-12-25T00:00:34.411Z,2.80
2018-12-25T00:03:32.523Z,2.90
2018-12-25T00:06:28.241Z,2.90
2018-12-25T00:09:24.102Z,2.80
2018-12-25T00:12:19.982Z,2.80
2018-12-25T00:15:16.477Z,2.80
2018-12-25T00:18:12.540Z,2.80
2018-12-25T00:21:08.014Z,2.80
2018-12-25T00:24:04.164Z,2.80
2018-12-25T00:26:59.844Z,2.80
2018-12-25T00:29:55.282Z,2.80
2018-12-25T00:32:55.831Z,2.90
2018-12-25T00:35:53.989Z,2.90
2018-12-25T00:38:50.385Z,3.00
2018-12-25T00:41:48.401Z,2.90
2018-12-25T00:44:46.739Z,2.90
2018-12-25T00:47:43.404Z,3.00
2018-12-25T00:50:40.047Z,3.00
2018-12-25T00:53:36.729Z,3.00
2018-12-25T00:56:32.905Z,3.00
2018-12-25T00:59:29.566Z,3.00
2018-12-25T01:02:27.741Z,3.00
2018-12-25T01:05:23.459Z,3.00
2018-12-25T01:08:20.158Z,3.00
2018-12-25T01:11:15.889Z,3.00
2018-12-25T01:14:13.898Z,3.00
2018-12-25T01:17:10.119Z,3.00
2018-12-25T01:20:06.923Z,3.00
2018-12-25T01:23:03.363Z,3.10
2018-12-25T01:25:59.287Z,3.00
2018-12-25T01:28:54.909Z,3.10
2018-12-25T01:31:50.090Z,3.00
2018-12-25T01:34:45.552Z,2.90
2018-12-25T01:37:41.243Z,2.90
2018-12-25T01:40:37.435Z,2.90
2018-12-25T01:43:32.915Z,2.90
2018-12-25T01:46:29.271Z,2.90
2018-12-25T01:49:31.797Z,2.90
2018-12-25T01:52:22.588Z,2.90
2018-12-25T01:55:19.276Z,2.90
2018-12-25T01:58:15.115Z,2.90
2018-12-25T02:01:10.715Z,2.90
2018-12-25T02:04:07.353Z,2.80
2018-12-25T02:07:02.830Z,2.90
2018-12-25T02:09:58.131Z,2.80
2018-12-25T02:12:54.078Z,2.90
2018-12-25T02:15:51.268Z,2.90
2018-12-25T02:18:46.520Z,3.00
2018-12-25T02:21:42.518Z,3.00
2018-12-25T02:24:38.503Z,3.00
2018-12-25T02:27:33.559Z,3.10
2018-12-25T02:30:28.453Z,3.00
2018-12-25T02:33:24.899Z,3.10
2018-12-25T02:36:20.764Z,3.00
2018-12-25T02:39:18.737Z,3.00
2018-12-25T02:42:14.662Z,3.00
2018-12-25T02:45:10.800Z,3.00
2018-12-25T02:48:06.031Z,2.90
2018-12-25T02:51:01.621Z,2.90
2018-12-25T02:53:58.464Z,2.90
2018-12-25T02:56:55.051Z,3.00
2018-12-25T02:59:50.583Z,3.00
2018-12-25T03:02:46.103Z,2.90
2018-12-25T03:05:42.916Z,2.90
2018-12-25T03:08:37.640Z,3.00
2018-12-25T03:11:36.666Z,2.90
2018-12-25T03:14:32.687Z,2.90
2018-12-25T03:17:28.894Z,2.90
2018-12-25T03:20:25.944Z,2.90
2018-12-25T03:23:22.515Z,3.00
2018-12-25T03:26:18.453Z,3.00
2018-12-25T03:29:14.592Z,3.00
2018-12-25T03:32:11.009Z,2.90
2018-12-25T03:35:06.585Z,3.00
2018-12-25T03:38:04.148Z,3.00
2018-12-25T03:40:59.932Z,3.00
2018-12-25T03:43:55.672Z,3.00
2018-12-25T03:46:51.203Z,3.00
2018-12-25T03:49:48.048Z,3.00
2018-12-25T03:52:45.682Z,3.00
2018-12-25T03:55:43.871Z,3.00
2018-12-25T03:58:40.500Z,3.00
2018-12-25T04:01:36.715Z,3.10
2018-12-25T04:04:32.380Z,3.20
2018-12-25T04:07:28.505Z,3.20
2018-12-25T04:10:24.660Z,3.10
2018-12-25T04:13:21.241Z,3.10
2018-12-25T04:16:17.266Z,3.10
2018-12-25T04:19:12.746Z,3.20
2018-12-25T04:22:09.399Z,3.20
2018-12-25T04:25:05.159Z,3.20
2018-12-25T04:28:03.206Z,3.20
2018-12-25T04:30:59.766Z,3.20
2018-12-25T04:33:56.486Z,3.20
2018-12-25T04:36:53.232Z,3.20
2018-12-25T04:39:50.021Z,3.20
2018-12-25T04:42:45.775Z,3.30
2018-12-25T04:45:41.414Z,3.30
2018-12-25T04:48:37.174Z,3.40
2018-12-25T04:51:33.904Z,3.50
2018-12-25T04:54:30.733Z,3.50
2018-12-25T04:57:30.858Z,3.50
2018-12-25T05:00:26.821Z,3.50
2018-12-25T05:03:22.329Z,3.50
2018-12-25T05:06:20.412Z,3.50
2018-12-25T05:09:16.166Z,3.60
2018-12-25T05:12:15.634Z,3.60
2018-12-25T05:15:12.092Z,3.60
2018-12-25T05:18:08.730Z,3.60
2018-12-25T05:21:05.488Z,3.60
2018-12-25T05:24:03.048Z,3.60
2018-12-25T05:26:59.771Z,3.60
2018-12-25T05:29:56.434Z,3.60
2018-12-25T05:32:53.020Z,3.70
2018-12-25T05:35:49.474Z,3.70
2018-12-25T05:38:44.927Z,3.70
2018-12-25T05:41:41.595Z,3.70
2018-12-25T05:44:38.108Z,3.60
2018-12-25T05:47:34.421Z,3.60
2018-12-25T05:50:30.933Z,3.60
2018-12-25T05:53:26.392Z,3.60
2018-12-25T05:56:24.341Z,3.60
2018-12-25T05:59:20.702Z,3.60
2018-12-25T06:02:17.187Z,3.50
2018-12-25T06:05:14.228Z,3.40
2018-12-25T06:08:10.375Z,3.40
2018-12-25T06:11:08.372Z,3.40
2018-12-25T06:14:05.650Z,3.50
2018-12-25T06:17:02.497Z,3.60
2018-12-25T06:19:59.297Z,3.50
2018-12-25T06:22:56.291Z,3.50
2018-12-25T06:25:52.913Z,3.50
2018-12-25T06:28:48.917Z,3.50
2018-12-25T06:31:45.482Z,3.50
2018-12-25T06:34:42.193Z,3.50
2018-12-25T06:37:40.352Z,3.50
2018-12-25T06:40:38.599Z,3.50
2018-12-25T06:43:34.363Z,3.50
2018-12-25T06:46:31.107Z,3.50
2018-12-25T06:49:27.821Z,3.50
2018-12-25T06:52:25.642Z,3.60
2018-12-25T06:55:21.622Z,3.60
2018-12-25T06:58:18.133Z,3.60
2018-12-25T07:01:14.591Z,3.60
2018-12-25T07:04:14.437Z,3.60
2018-12-25T07:07:13.824Z,3.60
2018-12-25T07:10:10.248Z,3.60
2018-12-25T07:13:05.436Z,3.60
2018-12-25T07:16:02.758Z,3.50
2018-12-25T07:18:59.480Z,3.60
2018-12-25T07:21:55.396Z,3.50
2018-12-25T07:24:51.734Z,3.60
2018-12-25T07:27:47.624Z,3.60
2018-12-25T07:30:44.251Z,3.50
2018-12-25T07:33:40.958Z,3.50
2018-12-25T07:36:37.554Z,3.50
2018-12-25T07:39:34.138Z,3.50
2018-12-25T07:42:29.943Z,3.60
2018-12-25T07:45:26.481Z,3.60
2018-12-25T07:48:22.700Z,3.60
2018-12-25T07:51:20.880Z,3.60
2018-12-25T07:54:17.023Z,3.60
2018-12-25T07:57:12.835Z,3.60
2018-12-25T08:00:27.754Z,3.60
2018-12-25T08:03:23.248Z,3.70
2018-12-25T08:06:19.213Z,3.60
2018-12-25T08:09:15.583Z,3.60
2018-12-25T08:12:11.645Z,3.70
2018-12-25T08:15:07.533Z,3.70
2018-12-25T08:18:04.414Z,3.70
2018-12-25T08:21:00.236Z,3.70
2018-12-25T08:23:56.179Z,3.60
2018-12-25T08:26:52.945Z,3.60
2018-12-25T08:29:48.748Z,3.60
2018-12-25T08:32:45.551Z,3.60
2018-12-25T08:35:41.619Z,3.60
2018-12-25T08:38:38.131Z,3.60
2018-12-25T08:41:33.979Z,3.60
2018-12-25T08:44:31.427Z,3.60
2018-12-25T08:47:32.575Z,3.70
2018-12-25T08:50:29.098Z,3.60
2018-12-25T08:53:24.631Z,3.70
2018-12-25T08:56:22.894Z,3.70
2018-12-25T08:59:19.751Z,3.70
2018-12-25T09:02:16.357Z,3.80
2018-12-25T09:05:12.814Z,3.90
2018-12-25T09:08:12.540Z,4.00
2018-12-25T09:11:21.938Z,4.00
2018-12-25T09:14:18.332Z,4.00
2018-12-25T09:17:13.768Z,4.00
2018-12-25T09:20:10.003Z,4.00
2018-12-25T09:23:08.631Z,4.00
2018-12-25T09:26:05.439Z,4.00
2018-12-25T09:29:02.180Z,4.10
2018-12-25T09:31:59.484Z,4.20
2018-12-25T09:34:59.126Z,4.20
2018-12-25T09:37:54.868Z,4.30
2018-12-25T09:40:51.451Z,4.20
2018-12-25T09:43:47.192Z,4.10
2018-12-25T09:46:43.878Z,4.20
2018-12-25T09:49:39.427Z,4.20
2018-12-25T09:52:36.581Z,4.20
2018-12-25T09:55:32.199Z,4.20
2018-12-25T09:58:27.800Z,4.20
2018-12-25T10:01:23.801Z,4.20
2018-12-25T10:04:20.207Z,4.20
2018-12-25T10:07:17.240Z,4.20
2018-12-25T10:10:14.004Z,4.30
2018-12-25T10:13:09.833Z,4.30
2018-12-25T10:16:06.341Z,4.30
2018-12-25T10:19:02.637Z,4.30
2018-12-25T10:22:02.875Z,4.30
2018-12-25T10:24:56.477Z,4.40
2018-12-25T10:27:54.211Z,4.40
2018-12-25T10:30:53.751Z,4.40
2018-12-25T10:33:49.679Z,4.40
2018-12-25T10:36:46.121Z,4.50
2018-12-25T10:39:42.453Z,4.50
2018-12-25T10:42:39.024Z,4.40
2018-12-25T10:45:35.907Z,4.50
2018-12-25T10:48:33.744Z,4.50
2018-12-25T10:51:31.236Z,4.50
2018-12-25T10:54:27.886Z,4.70
2018-12-25T10:57:24.426Z,4.70
2018-12-25T11:00:20.722Z,4.80
2018-12-25T11:03:16.511Z,4.90
2018-12-25T11:06:12.349Z,4.80
2018-12-25T11:09:09.149Z,4.80
2018-12-25T11:12:04.836Z,4.70
2018-12-25T11:15:00.463Z,4.70
2018-12-25T11:17:56.431Z,4.70
2018-12-25T11:20:52.035Z,4.90
2018-12-25T11:23:48.432Z,4.80
2018-12-25T11:26:45.229Z,4.70
2018-12-25T11:29:41.709Z,4.90
2018-12-25T11:32:39.804Z,4.90
2018-12-25T11:35:35.652Z,5.10
2018-12-25T11:38:33.512Z,5.20
2018-12-25T11:41:30.201Z,5.20
2018-12-25T11:44:26.194Z,5.30
2018-12-25T11:47:22.787Z,5.20
2018-12-25T11:50:19.530Z,5.20
2018-12-25T11:53:16.272Z,5.20
2018-12-25T11:56:12.964Z,5.40
2018-12-25T11:59:09.374Z,5.20
2018-12-25T12:02:06.053Z,5.20
2018-12-25T12:05:01.988Z,5.30
2018-12-25T12:07:58.680Z,5.40
2018-12-25T12:10:54.974Z,5.30
2018-12-25T12:13:50.945Z,5.40
2018-12-25T12:16:47.565Z,5.30
2018-12-25T12:19:44.328Z,5.20
2018-12-25T12:22:40.903Z,5.20
2018-12-25T12:25:37.531Z,5.10
2018-12-25T12:28:33.161Z,5.20
2018-12-25T12:31:28.639Z,5.20
2018-12-25T12:34:25.825Z,5.40
2018-12-25T12:37:21.719Z,5.50
2018-12-25T12:40:18.297Z,5.50
2018-12-25T12:43:14.986Z,5.50
2018-12-25T12:46:12.137Z,5.40
2018-12-25T12:49:09.138Z,5.40
2018-12-25T12:52:05.717Z,5.30
2018-12-25T12:55:02.630Z,5.30
2018-12-25T12:57:59.144Z,5.30
2018-12-25T13:00:54.857Z,5.40
2018-12-25T13:03:53.496Z,5.40
2018-12-25T13:06:50.014Z,5.40
2018-12-25T13:09:45.986Z,5.20
2018-12-25T13:12:42.535Z,5.20
2018-12-25T13:15:38.068Z,5.20
2018-12-25T13:18:34.002Z,5.30
2018-12-25T13:21:40.121Z,5.20
2018-12-25T13:24:35.943Z,5.10
2018-12-25T13:27:32.590Z,5.00
2018-12-25T13:30:28.358Z,5.10
2018-12-25T13:33:24.052Z,5.20
2018-12-25T13:36:20.601Z,5.30
2018-12-25T13:39:17.444Z,5.40
2018-12-25T13:42:14.696Z,5.30
2018-12-25T13:45:10.345Z,5.40
2018-12-25T13:48:06.997Z,5.30
2018-12-25T13:51:03.733Z,5.30
2018-12-25T13:53:59.497Z,5.30
2018-12-25T13:56:56.415Z,5.30
2018-12-25T13:59:53.200Z,5.30
2018-12-25T14:03:00.761Z,5.20
2018-12-25T14:05:56.540Z,5.10
2018-12-25T14:08:52.775Z,5.10
2018-12-25T14:11:49.027Z,5.10
2018-12-25T14:14:45.627Z,5.00
2018-12-25T14:17:42.460Z,5.00
2018-12-25T14:20:38.390Z,5.00
2018-12-25T14:23:33.864Z,5.10
2018-12-25T14:26:29.864Z,5.10
2018-12-25T14:29:25.503Z,5.10
2018-12-25T14:32:22.259Z,5.10
2018-12-25T14:35:17.775Z,5.00
2018-12-25T14:38:14.406Z,5.00
2018-12-25T14:41:10.941Z,4.90
2018-12-25T14:44:07.740Z,4.90
2018-12-25T14:47:04.433Z,4.80
2018-12-25T14:50:01.841Z,4.80
2018-12-25T14:52:57.663Z,4.80
2018-12-25T14:55:55.413Z,4.90
2018-12-25T14:58:50.998Z,4.80
2018-12-25T15:01:47.947Z,4.80
2018-12-25T15:04:44.616Z,4.80
2018-12-25T15:07:43.430Z,4.80
2018-12-25T15:10:40.238Z,4.80
2018-12-25T15:13:36.473Z,4.70
2018-12-25T15:16:32.132Z,4.80
2018-12-25T15:19:28.849Z,4.70
2018-12-25T15:22:25.285Z,4.70
2018-12-25T15:25:20.904Z,4.80
2018-12-25T15:28:17.853Z,4.80
2018-12-25T15:31:13.607Z,4.80
2018-12-25T15:34:10.442Z,4.70
2018-12-25T15:37:06.239Z,4.80
2018-12-25T15:40:02.645Z,4.80
2018-12-25T15:42:59.375Z,4.80
2018-12-25T15:45:55.225Z,4.80
2018-12-25T15:48:50.959Z,4.80
2018-12-25T15:51:47.843Z,4.70
2018-12-25T15:54:44.535Z,4.70
2018-12-25T15:57:41.268Z,4.70
2018-12-25T16:00:38.182Z,4.70
2018-12-25T16:03:33.946Z,4.70
2018-12-25T16:06:31.380Z,4.70
2018-12-25T16:09:27.811Z,4.70
2018-12-25T16:12:23.761Z,4.70
2018-12-25T16:15:20.537Z,4.70
2018-12-25T16:18:18.426Z,4.70
2018-12-25T16:21:15.087Z,4.70
2018-12-25T16:24:11.738Z,4.70
2018-12-25T16:27:08.448Z,4.70
2018-12-25T16:30:04.929Z,4.80
2018-12-25T16:33:01.603Z,4.70
2018-12-25T16:35:58.387Z,4.80
2018-12-25T16:38:55.252Z,4.80
2018-12-25T16:41:51.680Z,4.80
2018-12-25T16:44:48.409Z,4.70
2018-12-25T16:47:44.983Z,4.80
2018-12-25T16:50:41.696Z,4.80
2018-12-25T16:53:41.871Z,4.70
2018-12-25T16:56:37.301Z,4.70
2018-12-25T16:59:34.184Z,4.80
2018-12-25T17:02:30.220Z,4.90
2018-12-25T17:05:26.060Z,4.80
2018-12-25T17:08:22.775Z,4.80
2018-12-25T17:11:18.940Z,4.80
2018-12-25T17:14:15.848Z,4.80
2018-12-25T17:17:12.747Z,4.80
2018-12-25T17:20:10.647Z,4.80
2018-12-25T17:23:07.079Z,4.80
2018-12-25T17:26:03.741Z,4.80
2018-12-25T17:28:59.237Z,4.80
2018-12-25T17:31:56.703Z,4.80
2018-12-25T17:34:52.439Z,4.80
2018-12-25T17:37:49.086Z,4.70
2018-12-25T17:40:45.907Z,4.80
2018-12-25T17:43:42.593Z,4.80
2018-12-25T17:46:39.383Z,4.80
2018-12-25T17:49:35.498Z,4.80
2018-12-25T17:52:32.694Z,4.80
2018-12-25T17:55:28.623Z,4.80
2018-12-25T17:58:25.280Z,4.80
2018-12-25T18:01:21.687Z,4.90
2018-12-25T18:04:18.125Z,4.90
2018-12-25T18:07:14.595Z,4.80
2018-12-25T18:10:13.465Z,4.80
2018-12-25T18:13:10.230Z,4.80
2018-12-25T18:16:06.393Z,4.80
2018-12-25T18:19:02.214Z,4.80
2018-12-25T18:21:57.729Z,4.80
2018-12-25T18:24:54.495Z,4.80
2018-12-25T18:27:51.588Z,4.80
2018-12-25T18:30:48.115Z,4.80
2018-12-25T18:33:44.823Z,4.80
2018-12-25T18:36:42.797Z,4.80
2018-12-25T18:39:39.445Z,4.80
2018-12-25T18:42:37.020Z,4.80
2018-12-25T18:45:33.650Z,4.80
2018-12-25T18:48:30.198Z,4.80
2018-12-25T18:51:26.948Z,4.80
2018-12-25T18:54:27.742Z,4.80
2018-12-25T18:57:20.043Z,4.90
2018-12-25T19:00:15.578Z,4.90
2018-12-25T19:03:13.536Z,4.80
2018-12-25T19:06:10.166Z,4.90
2018-12-25T19:09:08.432Z,4.90
2018-12-25T19:12:04.979Z,4.90
2018-12-25T19:15:25.858Z,4.90
2018-12-25T19:18:22.252Z,4.80
2018-12-25T19:21:18.875Z,4.80
2018-12-25T19:24:15.672Z,4.80
2018-12-25T19:27:11.531Z,4.90
2018-12-25T19:30:09.002Z,4.80
2018-12-25T19:33:06.536Z,4.80
2018-12-25T19:36:02.369Z,4.80
2018-12-25T19:38:58.843Z,4.80
2018-12-25T19:41:55.513Z,4.80
2018-12-25T19:44:52.351Z,4.80
2018-12-25T19:47:48.820Z,4.80
2018-12-25T19:50:44.487Z,4.80
2018-12-25T19:53:43.925Z,4.80
2018-12-25T19:56:40.149Z,4.80
2018-12-25T19:59:36.693Z,4.80
2018-12-25T20:02:32.859Z,4.80
2018-12-25T20:06:39.029Z,4.80
2018-12-25T20:10:34.920Z,4.80
2018-12-25T20:14:31.191Z,4.90
2018-12-25T20:18:25.462Z,4.80
2018-12-25T20:22:22.465Z,4.80
2018-12-25T20:26:17.099Z,4.70
2018-12-25T20:30:26.633Z,4.70
2018-12-25T20:34:01.516Z,4.70
2018-12-25T20:37:45.428Z,4.60
2018-12-25T20:41:56.849Z,4.70
2018-12-25T20:45:52.690Z,4.70
2018-12-25T20:49:39.537Z,4.70
2018-12-25T20:53:51.852Z,4.80
2018-12-25T20:58:00.991Z,4.70
2018-12-25T21:01:44.644Z,4.80
2018-12-25T21:05:55.393Z,4.70
2018-12-25T21:09:52.771Z,4.70
2018-12-25T21:13:48.587Z,4.70
2018-12-25T21:18:03.123Z,4.80
2018-12-25T21:21:56.635Z,4.00
2018-12-25T21:26:00.341Z,4.70
2018-12-25T21:28:56.303Z,4.70
2018-12-25T21:31:52.431Z,4.70
2018-12-25T21:34:48.790Z,4.80
2018-12-25T21:37:46.053Z,4.80
2018-12-25T21:40:42.145Z,4.90
2018-12-25T21:43:39.804Z,4.80
2018-12-25T21:46:37.015Z,4.80
2018-12-25T21:49:33.737Z,4.90
2018-12-25T21:52:29.894Z,4.90
2018-12-25T21:55:26.664Z,4.90
2018-12-25T21:58:23.378Z,4.90
2018-12-25T22:01:21.812Z,4.80
2018-12-25T22:04:19.186Z,4.80
2018-12-25T22:07:15.992Z,4.80
2018-12-25T22:10:12.675Z,4.90
2018-12-25T22:13:09.406Z,4.90
2018-12-25T22:16:05.076Z,4.90
2018-12-25T22:19:04.977Z,4.90
2018-12-25T22:22:01.175Z,4.80
2018-12-25T22:24:58.121Z,4.90
2018-12-25T22:27:54.147Z,4.90
2018-12-25T22:30:51.073Z,4.80
2018-12-25T22:33:47.866Z,4.90
2018-12-25T22:36:44.426Z,4.90
2018-12-25T22:39:40.962Z,4.90
2018-12-25T22:42:37.777Z,4.90
2018-12-25T22:45:34.480Z,4.80
2018-12-25T22:48:31.176Z,4.80
2018-12-25T22:51:27.490Z,4.80
2018-12-25T22:54:24.240Z,4.80
2018-12-25T22:57:19.812Z,4.80
2018-12-25T23:00:19.416Z,4.80
2018-12-25T23:03:17.298Z,4.90
2018-12-25T23:06:13.861Z,4.90
2018-12-25T23:09:10.765Z,4.90
2018-12-25T23:12:08.748Z,4.90
2018-12-25T23:15:08.245Z,4.90
2018-12-25T23:18:03.875Z,4.90
2018-12-25T23:20:59.931Z,4.90
2018-12-25T23:23:55.787Z,4.90
2018-12-25T23:26:52.091Z,4.90
2018-12-25T23:29:52.179Z,4.90
2018-12-25T23:32:47.651Z,4.90
2018-12-25T23:35:44.650Z,4.90
2018-12-25T23:38:41.411Z,4.90
2018-12-25T23:41:39.140Z,4.90
2018-12-25T23:44:34.898Z,4.90
2018-12-25T23:47:31.624Z,4.90
2018-12-25T23:50:27.382Z,5.00
2018-12-25T23:53:24.899Z,5.00
2018-12-25T23:56:21.321Z,5.00
2018-12-25T23:59:17.877Z,5.00
